Time;durP1;ratioP1;P1;durP2;ratioP2;P2;SDS_P1;SDS_P2;PMS_P1;PMS_P2;Temp;Humidity;BMP_temperature;BMP_pressure;BME280_temperature;BME280_humidity;BME280_pressure;Samples;Min_cycle;Max_cycle;Signal;HPM_P1;HPM_P2
2022/07/25 00:02:09;;;;;;;5.57;5.07;;;20.00;96.20;;;;;;5044349;28;20224;-94
2022/07/25 00:04:37;;;;;;;5.50;4.95;;;20.00;96.10;;;;;;5026206;28;20227;-93
2022/07/25 00:07:04;;;;;;;5.80;5.28;;;20.10;96.10;;;;;;5039384;28;20228;-95
2022/07/25 00:09:34;;;;;;;5.95;5.45;;;20.00;96.30;;;;;;5047254;28;20220;-94
2022/07/25 00:12:04;;;;;;;5.95;5.38;;;20.10;96.30;;;;;;5026126;28;20799;-95
2022/07/25 00:14:35;;;;;;;7.88;5.45;;;20.00;96.20;;;;;;5031483;28;20227;-93
2022/07/25 00:17:02;;;;;;;6.75;5.70;;;20.00;96.10;;;;;;5021565;28;20216;-94
2022/07/25 00:19:33;;;;;;;5.68;5.13;;;20.00;96.10;;;;;;5045895;28;20220;-94
2022/07/25 00:22:07;;;;;;;7.28;5.88;;;20.00;96.20;;;;;;5046339;28;20220;-94
2022/07/25 00:24:34;;;;;;;7.43;5.95;;;20.00;96.20;;;;;;5025791;28;20220;-96
2022/07/25 00:27:03;;;;;;;6.45;5.60;;;20.00;96.00;;;;;;5038781;28;20224;-95
2022/07/25 00:29:34;;;;;;;6.00;5.47;;;19.90;96.10;;;;;;5034490;28;20224;-94
2022/07/25 00:32:06;;;;;;;6.32;5.30;;;20.00;96.10;;;;;;5027110;28;20216;-95
2022/07/25 00:34:33;;;;;;;7.07;5.50;;;20.00;96.10;;;;;;5045923;28;20224;-94
2022/07/25 00:37:02;;;;;;;7.03;5.68;;;20.00;96.40;;;;;;5029012;28;20220;-94
2022/07/25 00:39:29;;;;;;;6.32;5.72;;;19.90;96.10;;;;;;5024978;28;20675;-94
2022/07/25 00:42:03;;;;;;;7.18;5.25;;;20.00;96.10;;;;;;5035934;28;20337;-94
2022/07/25 00:44:46;;;;;;;6.10;5.47;;;19.90;96.10;;;;;;5001210;28;20234;-95
2022/07/25 00:47:13;;;;;;;6.53;5.93;;;19.90;96.10;;;;;;5032583;28;20226;-94
2022/07/25 00:49:46;;;;;;;7.82;5.93;;;19.90;96.10;;;;;;5049841;28;20303;-94
2022/07/25 00:52:14;;;;;;;5.88;5.35;;;19.90;96.00;;;;;;5046486;28;20223;-94
2022/07/25 00:54:42;;;;;;;7.75;6.32;;;19.80;96.20;;;;;;5021178;28;20224;-94
2022/07/25 00:57:18;;;;;;;6.60;5.95;;;19.80;96.20;;;;;;5031452;28;20580;-96
2022/07/25 00:59:50;;;;;;;5.95;5.25;;;19.70;96.50;;;;;;5033030;28;20442;-95
2022/07/25 01:02:20;;;;;;;5.70;5.13;;;19.60;96.50;;;;;;5051562;28;20258;-95
2022/07/25 01:04:49;;;;;;;5.90;5.35;;;19.60;96.40;;;;;;5039324;28;20287;-95
2022/07/25 01:07:18;;;;;;;6.22;5.63;;;19.70;96.50;;;;;;5062830;28;20346;-96
2022/07/25 01:09:46;;;;;;;6.45;5.68;;;19.60;96.60;;;;;;5064302;28;20220;-95
2022/07/25 01:12:15;;;;;;;6.10;5.50;;;19.60;96.80;;;;;;5037602;28;20211;-94
2022/07/25 01:14:42;;;;;;;6.72;6.03;;;19.60;96.70;;;;;;5029415;28;20631;-93
2022/07/25 01:17:13;;;;;;;6.45;5.85;;;19.50;96.60;;;;;;5049086;28;20247;-95
2022/07/25 01:19:41;;;;;;;6.55;5.60;;;19.50;96.90;;;;;;5031897;28;20278;-96
2022/07/25 01:22:12;;;;;;;6.05;5.32;;;19.50;96.70;;;;;;5045591;28;20250;-96
2022/07/25 01:24:39;;;;;;;6.57;5.40;;;19.50;96.60;;;;;;5043990;28;20227;-96
2022/07/25 01:27:06;;;;;;;5.97;5.38;;;19.40;96.60;;;;;;5038218;28;20275;-95
2022/07/25 01:29:33;;;;;;;6.47;5.40;;;19.30;96.30;;;;;;5042308;28;20218;-95
2022/07/25 01:32:03;;;;;;;6.00;5.10;;;19.40;96.30;;;;;;5058728;28;20216;-96
2022/07/25 01:34:35;;;;;;;5.90;4.63;;;19.30;96.20;;;;;;5037333;28;20223;-96
2022/07/25 01:37:02;;;;;;;6.00;4.57;;;19.30;96.40;;;;;;5051874;28;20265;-96
2022/07/25 01:39:31;;;;;;;5.45;4.78;;;19.30;96.00;;;;;;5059499;28;20220;-96
2022/07/25 01:41:59;;;;;;;7.07;4.50;;;19.30;95.80;;;;;;5032788;28;20287;-95
2022/07/25 01:44:32;;;;;;;5.38;4.88;;;19.30;95.70;;;;;;5019143;28;20251;-94
2022/07/25 01:47:12;;;;;;;4.72;4.00;;;19.30;95.60;;;;;;5037858;28;20243;-94
2022/07/25 01:49:49;;;;;;;5.82;3.70;;;19.30;95.20;;;;;;5015587;28;21793;-94
2022/07/25 01:52:22;;;;;;;5.10;4.10;;;19.30;95.00;;;;;;5036431;28;20231;-95
2022/07/25 01:54:53;;;;;;;4.32;3.80;;;19.30;94.60;;;;;;5046220;28;20228;-94
2022/07/25 01:57:20;;;;;;;5.65;3.88;;;19.30;94.30;;;;;;5052328;28;20223;-96
2022/07/25 02:00:04;;;;;;;4.50;3.60;;;19.40;94.30;;;;;;5031528;28;20369;-94
2022/07/25 02:02:39;;;;;;;4.95;3.65;;;19.40;94.20;;;;;;5053129;28;20221;-93
2022/07/25 02:05:06;;;;;;;5.25;3.63;;;19.50;94.10;;;;;;5050134;28;20220;-93
2022/07/25 02:07:33;;;;;;;4.80;3.42;;;19.40;94.30;;;;;;5048191;28;20247;-94
2022/07/25 02:10:02;;;;;;;3.95;3.50;;;19.40;94.20;;;;;;5029320;28;20221;-94
2022/07/25 02:12:29;;;;;;;5.45;3.60;;;19.40;94.00;;;;;;5029011;28;20233;-94
2022/07/25 02:14:56;;;;;;;4.35;3.83;;;19.40;93.90;;;;;;5031426;28;20295;-94
2022/07/25 02:17:23;;;;;;;4.80;3.80;;;19.40;94.10;;;;;;5028635;28;20235;-94
2022/07/25 02:19:50;;;;;;;5.00;4.25;;;19.40;94.00;;;;;;5030414;28;20275;-94
2022/07/25 02:22:17;;;;;;;4.40;3.78;;;19.40;93.80;;;;;;5037732;28;20295;-94
2022/07/25 02:24:44;;;;;;;4.65;3.28;;;19.40;93.90;;;;;;5033266;28;20234;-95
2022/07/25 02:27:14;;;;;;;4.53;4.13;;;19.40;94.20;;;;;;5032460;28;20251;-95
2022/07/25 02:29:41;;;;;;;6.10;3.70;;;19.30;94.40;;;;;;5044103;28;20713;-93
2022/07/25 02:32:08;;;;;;;4.68;3.83;;;19.30;94.10;;;;;;5028398;28;20224;-93
2022/07/25 02:34:35;;;;;;;7.38;4.47;;;19.30;94.10;;;;;;5033784;28;20299;-94
2022/07/25 02:37:02;;;;;;;4.60;3.80;;;19.20;94.10;;;;;;5027590;28;20246;-94
2022/07/25 02:39:29;;;;;;;4.75;3.80;;;19.30;94.00;;;;;;5031534;28;20223;-94
2022/07/25 02:41:56;;;;;;;5.32;4.10;;;19.20;94.00;;;;;;5031138;28;20251;-94
2022/07/25 02:44:27;;;;;;;6.22;3.80;;;19.20;94.10;;;;;;5029826;28;20228;-94
2022/07/25 02:46:55;;;;;;;4.00;3.60;;;19.10;94.10;;;;;;5036294;28;20239;-94
2022/07/25 02:49:22;;;;;;;6.32;3.80;;;19.10;94.20;;;;;;5034739;28;20323;-96
2022/07/25 02:51:49;;;;;;;4.53;3.60;;;19.10;93.90;;;;;;5042322;28;20280;-94
2022/07/25 02:54:16;;;;;;;6.10;3.70;;;19.00;93.90;;;;;;5030706;28;20216;-94
2022/07/25 02:56:46;;;;;;;3.60;3.30;;;19.00;93.80;;;;;;5047948;28;20216;-94
2022/07/25 02:59:18;;;;;;;4.72;3.97;;;19.00;94.10;;;;;;5026208;28;20281;-96
2022/07/25 03:01:50;;;;;;;5.85;3.20;;;19.00;94.00;;;;;;5029334;28;20228;-95
2022/07/25 03:04:17;;;;;;;3.72;3.30;;;18.90;94.00;;;;;;5035778;28;20255;-94
2022/07/25 03:06:45;;;;;;;4.68;3.78;;;18.90;94.00;;;;;;5059331;28;20220;-94
2022/07/25 03:09:17;;;;;;;5.68;3.38;;;18.90;94.00;;;;;;5029158;28;20278;-93
2022/07/25 03:11:55;;;;;;;;;;;;;;;;;;;;;
2022/07/25 03:14:22;;;;;;;4.53;3.00;;;18.90;93.60;;;;;;5021120;28;20228;-94
2022/07/25 03:16:52;;;;;;;5.20;3.00;;;18.80;93.60;;;;;;5038193;28;20216;-94
2022/07/25 03:19:19;;;;;;;3.80;3.10;;;18.80;93.30;;;;;;5032686;28;20700;-93
2022/07/25 03:21:54;;;;;;;5.47;3.50;;;18.90;93.40;;;;;;5032404;28;20224;-94
2022/07/25 03:24:33;;;;;;;4.90;3.00;;;18.80;93.60;;;;;;5025211;28;20216;-94
2022/07/25 03:27:03;;;;;;;4.32;2.88;;;18.90;93.50;;;;;;5051124;28;20318;-94
2022/07/25 03:29:46;;;;;;;6.40;3.40;;;18.80;93.30;;;;;;5010186;28;20226;-95
2022/07/25 03:32:15;;;;;;;5.05;2.95;;;18.90;93.30;;;;;;5046971;23;20220;-79
2022/07/25 03:34:42;;;;;;;4.32;2.70;;;18.80;93.30;;;;;;5046000;28;20319;-80
2022/07/25 03:37:09;;;;;;;3.88;2.90;;;18.90;93.30;;;;;;5051143;22;20225;-78
2022/07/25 03:39:36;;;;;;;5.20;3.08;;;18.80;93.30;;;;;;5016882;28;20224;-77
2022/07/25 03:42:03;;;;;;;7.10;2.92;;;18.90;93.30;;;;;;5028758;28;20229;-77
2022/07/25 03:44:33;;;;;;;4.15;3.13;;;18.90;93.20;;;;;;5003970;28;20331;-77
2022/07/25 03:47:02;;;;;;;4.13;2.80;;;18.90;93.10;;;;;;5039498;28;20220;-77
2022/07/25 03:49:30;;;;;;;6.25;2.90;;;18.90;93.10;;;;;;5018293;28;20225;-76
2022/07/25 03:51:57;;;;;;;3.35;3.05;;;18.90;93.00;;;;;;5035014;28;20704;-77
2022/07/25 03:54:23;;;;;;;4.63;2.88;;;19.00;92.90;;;;;;5030431;28;22425;-77
2022/07/25 03:56:52;;;;;;;6.22;2.75;;;19.00;92.80;;;;;;5020104;28;20220;-78
2022/07/25 03:59:19;;;;;;;4.05;2.70;;;19.00;92.70;;;;;;5031703;28;20237;-78
2022/07/25 04:01:48;;;;;;;4.05;2.83;;;19.00;92.60;;;;;;5026549;28;20655;-78
2022/07/25 04:04:15;;;;;;;3.50;2.40;;;19.00;92.60;;;;;;5031496;28;20230;-78
2022/07/25 04:06:44;;;;;;;4.72;2.95;;;19.10;92.50;;;;;;5034829;28;20907;-78
2022/07/25 04:09:11;;;;;;;3.45;2.70;;;19.10;92.50;;;;;;5032886;28;20791;-78
2022/07/25 04:11:40;;;;;;;3.28;2.60;;;19.10;92.30;;;;;;5034783;28;20582;-78
2022/07/25 04:14:07;;;;;;;3.00;2.75;;;19.10;92.10;;;;;;5030826;28;20784;-77
2022/07/25 04:16:34;;;;;;;4.40;2.70;;;19.10;92.00;;;;;;5033574;28;20327;-77
2022/07/25 04:19:01;;;;;;;2.85;2.50;;;19.20;92.20;;;;;;5030741;28;21819;-77
2022/07/25 04:21:27;;;;;;;3.80;2.72;;;19.20;92.00;;;;;;5031924;28;20871;-77
2022/07/25 04:23:56;;;;;;;4.07;2.50;;;19.30;91.90;;;;;;5032554;28;20230;-77
2022/07/25 04:26:22;;;;;;;4.97;2.65;;;19.30;91.70;;;;;;5024933;28;20228;-76
2022/07/25 04:28:49;;;;;;;5.50;2.88;;;19.30;91.70;;;;;;5035647;28;20302;-77
2022/07/25 04:31:16;;;;;;;3.13;2.60;;;19.40;91.70;;;;;;5011457;28;20239;-77
2022/07/25 04:33:43;;;;;;;3.40;2.38;;;19.40;91.60;;;;;;5011315;28;20270;-77
2022/07/25 04:36:10;;;;;;;2.97;2.63;;;19.40;91.60;;;;;;5033051;28;20824;-77
2022/07/25 04:38:37;;;;;;;2.78;2.47;;;19.50;91.60;;;;;;5032618;28;20607;-77
2022/07/25 04:41:05;;;;;;;4.78;2.70;;;19.50;91.40;;;;;;5030151;28;20228;-78
2022/07/25 04:43:32;;;;;;;2.95;2.63;;;19.60;91.20;;;;;;5028231;28;20224;-78
2022/07/25 04:46:00;;;;;;;3.90;2.83;;;19.70;91.30;;;;;;5028102;28;20221;-77
2022/07/25 04:48:26;;;;;;;2.75;2.55;;;19.70;91.00;;;;;;5032873;28;20228;-78
2022/07/25 04:50:53;;;;;;;4.68;2.70;;;19.70;91.00;;;;;;5027946;28;20317;-77
2022/07/25 04:53:20;;;;;;;3.13;2.30;;;19.80;91.00;;;;;;5030117;28;20217;-77
2022/07/25 04:55:46;;;;;;;3.63;2.47;;;19.90;91.20;;;;;;5034608;28;20590;-77
2022/07/25 04:58:15;;;;;;;4.57;2.38;;;20.00;90.90;;;;;;5031495;28;20241;-77
2022/07/25 05:00:42;;;;;;;2.97;2.67;;;20.00;90.60;;;;;;5037711;28;20231;-77
2022/07/25 05:03:09;;;;;;;3.15;2.60;;;20.10;90.60;;;;;;5029248;28;20228;-77
2022/07/25 05:05:36;;;;;;;2.50;2.30;;;20.20;90.60;;;;;;5031023;28;20228;-77
2022/07/25 05:08:03;;;;;;;3.08;2.50;;;20.20;90.30;;;;;;5014731;28;20236;-79
2022/07/25 05:10:30;;;;;;;6.10;2.63;;;20.30;90.30;;;;;;5032246;28;20224;-78
2022/07/25 05:12:57;;;;;;;2.55;2.30;;;20.40;90.20;;;;;;5034856;28;20278;-78
2022/07/25 05:15:25;;;;;;;2.72;2.42;;;20.50;90.10;;;;;;5028875;28;20216;-77
2022/07/25 05:17:54;;;;;;;3.75;2.67;;;20.50;89.80;;;;;;5034290;28;21490;-77
2022/07/25 05:20:21;;;;;;;6.80;2.80;;;20.50;89.70;;;;;;5013911;28;20291;-79
2022/07/25 05:22:48;;;;;;;2.60;2.40;;;20.60;89.30;;;;;;5043805;28;20294;-78
2022/07/25 05:25:15;;;;;;;3.65;2.60;;;20.60;89.30;;;;;;5039812;28;20224;-79
2022/07/25 05:27:41;;;;;;;4.43;3.08;;;20.70;89.40;;;;;;5039049;28;20339;-78
2022/07/25 05:30:10;;;;;;;3.70;2.40;;;20.70;89.20;;;;;;5023345;28;20220;-78
2022/07/25 05:32:39;;;;;;;6.35;3.25;;;20.70;88.70;;;;;;5015395;28;20220;-78
2022/07/25 05:35:09;;;;;;;3.28;2.65;;;20.70;88.60;;;;;;5038795;28;20225;-78
2022/07/25 05:37:38;;;;;;;3.20;2.35;;;20.70;88.30;;;;;;5018434;28;20263;-79
2022/07/25 05:40:07;;;;;;;4.95;2.90;;;20.70;88.40;;;;;;5026099;28;20942;-78
2022/07/25 05:42:34;;;;;;;3.38;2.60;;;20.80;88.80;;;;;;5016056;28;20445;-79
2022/07/25 05:45:01;;;;;;;2.83;2.53;;;20.90;88.90;;;;;;5024321;28;20637;-79
2022/07/25 05:47:27;;;;;;;4.03;2.70;;;21.00;88.20;;;;;;5054047;28;20224;-79
2022/07/25 05:49:55;;;;;;;4.28;2.40;;;21.00;87.80;;;;;;5038430;28;20243;-78
2022/07/25 05:52:22;;;;;;;4.25;2.95;;;21.00;87.60;;;;;;5048278;28;20232;-78
2022/07/25 05:54:49;;;;;;;7.97;2.85;;;21.10;86.70;;;;;;5037636;28;20292;-79
2022/07/25 05:57:18;;;;;;;3.17;2.40;;;21.10;87.10;;;;;;5035719;28;20893;-78
2022/07/25 05:59:45;;;;;;;3.72;2.55;;;21.20;87.00;;;;;;5032239;28;20224;-78
2022/07/25 06:02:12;;;;;;;2.72;2.35;;;21.30;86.40;;;;;;5022161;28;20238;-79
2022/07/25 06:04:38;;;;;;;5.22;2.53;;;21.40;85.80;;;;;;5023090;28;20235;-78
2022/07/25 06:07:06;;;;;;;3.47;2.67;;;21.50;85.80;;;;;;5031378;28;20213;-78
2022/07/25 06:09:33;;;;;;;4.63;2.95;;;21.60;85.60;;;;;;5035506;28;20220;-79
2022/07/25 06:12:00;;;;;;;3.03;2.65;;;21.60;85.00;;;;;;5041103;28;20236;-78
2022/07/25 06:14:26;;;;;;;3.30;2.60;;;21.70;85.10;;;;;;5015797;28;20704;-79
2022/07/25 06:16:55;;;;;;;3.28;2.53;;;21.80;85.40;;;;;;5048789;28;20938;-79
2022/07/25 06:19:21;;;;;;;4.85;2.70;;;21.80;85.20;;;;;;5036251;28;20760;-78
2022/07/25 06:21:48;;;;;;;2.67;2.47;;;22.00;85.50;;;;;;5017561;28;20735;-79
2022/07/25 06:24:16;;;;;;;4.47;2.80;;;22.00;85.60;;;;;;5021257;28;20216;-79
2022/07/25 06:26:45;;;;;;;4.97;3.00;;;22.10;84.90;;;;;;5046476;28;20224;-79
2022/07/25 06:29:12;;;;;;;3.50;2.75;;;22.20;84.20;;;;;;5027984;28;20303;-79
2022/07/25 06:31:38;;;;;;;3.08;2.67;;;22.30;84.10;;;;;;5043427;28;20243;-79
2022/07/25 06:34:05;;;;;;;3.75;3.03;;;22.40;84.20;;;;;;5027712;28;20692;-79
2022/07/25 06:36:32;;;;;;;3.60;2.53;;;22.40;83.40;;;;;;5026434;28;20316;-78
2022/07/25 06:38:59;;;;;;;4.68;2.83;;;22.40;83.50;;;;;;5034398;28;20692;-79
2022/07/25 06:41:27;;;;;;;4.13;2.95;;;22.50;83.00;;;;;;5022072;28;20312;-80
2022/07/25 06:43:54;;;;;;;4.53;2.75;;;22.60;83.00;;;;;;5017869;28;20282;-78
2022/07/25 06:46:20;;;;;;;4.78;3.00;;;22.70;83.60;;;;;;5031551;28;20221;-79
2022/07/25 06:48:49;;;;;;;4.18;2.65;;;22.80;83.00;;;;;;5031321;28;20228;-79
2022/07/25 06:51:16;;;;;;;3.55;2.70;;;22.80;83.00;;;;;;5035697;28;20302;-78
2022/07/25 06:53:42;;;;;;;3.58;2.83;;;22.90;83.00;;;;;;5041113;28;20672;-79
2022/07/25 06:56:09;;;;;;;3.28;2.97;;;23.00;83.00;;;;;;5035797;28;20503;-78
2022/07/25 06:58:37;;;;;;;6.30;3.08;;;23.10;83.20;;;;;;5028897;28;20874;-78
2022/07/25 07:01:04;;;;;;;3.63;2.90;;;23.20;83.10;;;;;;4990285;28;20217;-78
2022/07/25 07:03:31;;;;;;;7.35;3.10;;;23.40;83.10;;;;;;5027176;28;20224;-79
2022/07/25 07:06:02;;;;;;;3.42;3.05;;;23.60;82.70;;;;;;5042302;28;20501;-79
2022/07/25 07:08:29;;;;;;;3.38;3.08;;;23.90;81.10;;;;;;5037841;28;20227;-78
2022/07/25 07:10:55;;;;;;;3.40;3.05;;;24.10;80.90;;;;;;5027424;28;20270;-78
2022/07/25 07:13:22;;;;;;;4.50;3.33;;;24.30;80.90;;;;;;5038629;28;20320;-79
2022/07/25 07:15:51;;;;;;;5.22;3.40;;;24.40;81.10;;;;;;5031258;28;20716;-79
2022/07/25 07:18:17;;;;;;;5.30;3.60;;;24.60;81.00;;;;;;5010743;28;20652;-78
2022/07/25 07:20:45;;;;;;;11.48;3.88;;;24.80;80.00;;;;;;5031631;28;20232;-79
2022/07/25 07:23:14;;;;;;;4.50;3.63;;;25.00;79.10;;;;;;5033203;28;20624;-78
2022/07/25 07:25:41;;;;;;;4.53;3.92;;;25.20;78.90;;;;;;5031992;28;20323;-79
2022/07/25 07:28:07;;;;;;;5.00;3.85;;;25.50;77.50;;;;;;5023169;28;20263;-79
2022/07/25 07:30:34;;;;;;;5.18;3.88;;;25.70;78.30;;;;;;5042440;28;20908;-79
2022/07/25 07:33:03;;;;;;;5.93;3.60;;;26.10;76.70;;;;;;5026011;28;20311;-80
2022/07/25 07:35:29;;;;;;;4.00;3.60;;;26.40;75.20;;;;;;5041142;28;20224;-79
2022/07/25 07:37:56;;;;;;;4.10;3.42;;;26.60;74.60;;;;;;5032499;28;20327;-79
2022/07/25 07:40:25;;;;;;;3.97;3.60;;;26.90;73.30;;;;;;5031800;28;20680;-79
2022/07/25 07:42:55;;;;;;;4.05;3.58;;;27.10;73.50;;;;;;5027982;28;20225;-78
2022/07/25 07:45:24;;;;;;;4.72;3.72;;;27.40;73.30;;;;;;5021665;28;20330;-79
2022/07/25 07:47:53;;;;;;;7.97;3.88;;;27.70;72.00;;;;;;5037240;28;20228;-79
2022/07/25 07:50:23;;;;;;;4.68;3.92;;;28.00;70.80;;;;;;5033780;28;20415;-80
2022/07/25 07:52:50;;;;;;;4.38;3.97;;;28.30;70.50;;;;;;5016693;28;20224;-80
2022/07/25 07:58:02;;;;;;;5.38;3.67;;;29.00;70.20;;;;;;5019834;28;20230;-79
2022/07/25 08:00:30;;;;;;;6.45;3.95;;;29.40;68.20;;;;;;5041227;28;20711;-79
2022/07/25 08:02:58;;;;;;;6.43;4.15;;;29.90;66.40;;;;;;5010447;28;20221;-79
2022/07/25 08:05:28;;;;;;;5.63;3.85;;;30.30;65.20;;;;;;5014987;28;20228;-79
2022/07/25 08:07:58;;;;;;;8.05;4.18;;;30.60;63.80;;;;;;5040700;28;20339;-79
2022/07/25 08:10:27;;;;;;;4.43;3.75;;;30.90;64.60;;;;;;5029593;28;20239;-80
2022/07/25 08:12:58;;;;;;;5.15;3.53;;;31.10;64.50;;;;;;5023015;28;20314;-79
2022/07/25 08:15:24;;;;;;;9.55;4.70;;;31.40;63.00;;;;;;5031931;28;20243;-79
2022/07/25 08:17:52;;;;;;;4.55;4.10;;;31.70;62.10;;;;;;5042841;28;20224;-80
2022/07/25 08:20:21;;;;;;;4.45;4.05;;;31.90;60.40;;;;;;5031641;28;20238;-80
2022/07/25 08:22:50;;;;;;;5.00;4.50;;;32.10;60.40;;;;;;5044116;28;20734;-80
2022/07/25 08:25:19;;;;;;;6.80;4.55;;;32.30;59.70;;;;;;5018513;28;20287;-79
2022/07/25 08:27:46;;;;;;;5.72;4.10;;;32.40;60.00;;;;;;5044323;28;20235;-80
2022/07/25 08:30:14;;;;;;;5.40;4.55;;;32.60;59.20;;;;;;5037900;28;20226;-79
2022/07/25 08:32:49;;;;;;;5.10;4.63;;;32.70;57.70;;;;;;5041884;28;20274;-79
2022/07/25 08:35:17;;;;;;;5.47;4.28;;;32.80;57.50;;;;;;5048461;28;20272;-79
2022/07/25 08:37:44;;;;;;;7.07;4.30;;;32.80;57.40;;;;;;5019416;28;20236;-79
2022/07/25 08:40:13;;;;;;;6.18;4.35;;;32.90;57.50;;;;;;5009612;28;20311;-79
2022/07/25 08:42:40;;;;;;;4.80;4.40;;;32.90;56.90;;;;;;5033026;28;20231;-79
2022/07/25 08:45:08;;;;;;;5.90;4.47;;;33.10;57.10;;;;;;5028316;28;20223;-80
2022/07/25 08:47:36;;;;;;;10.07;4.78;;;33.30;56.80;;;;;;5043815;28;20315;-80
2022/07/25 08:50:05;;;;;;;5.50;4.25;;;33.50;56.30;;;;;;5022318;28;20348;-80
2022/07/25 08:52:34;;;;;;;7.20;4.90;;;33.60;55.70;;;;;;5037533;28;20329;-80
2022/07/25 08:55:01;;;;;;;4.85;4.32;;;33.80;55.30;;;;;;5028601;28;20231;-80
2022/07/25 08:57:32;;;;;;;4.85;4.45;;;34.00;56.00;;;;;;5006266;28;20218;-80
2022/07/25 08:59:59;;;;;;;6.97;4.80;;;34.10;54.80;;;;;;5005298;28;20225;-79
2022/07/25 09:02:27;;;;;;;6.78;4.55;;;34.30;53.90;;;;;;5014908;28;20225;-80
2022/07/25 09:04:53;;;;;;;5.00;4.60;;;34.40;54.10;;;;;;5041477;28;20941;-79
2022/07/25 09:07:30;;;;;;;5.18;4.60;;;34.50;52.70;;;;;;5031559;28;20231;-80
2022/07/25 09:09:57;;;;;;;7.22;5.15;;;34.60;52.70;;;;;;5039935;28;20315;-79
2022/07/25 09:12:26;;;;;;;6.90;4.90;;;34.80;52.70;;;;;;5004676;28;20694;-80
2022/07/25 09:14:55;;;;;;;5.90;4.65;;;34.90;52.00;;;;;;5009066;28;20243;-79
2022/07/25 09:17:22;;;;;;;5.50;4.90;;;34.90;51.10;;;;;;5052704;28;20448;-80
2022/07/25 09:19:53;;;;;;;5.55;4.90;;;34.90;51.20;;;;;;5046542;28;20835;-80
2022/07/25 09:22:22;;;;;;;5.40;4.90;;;34.90;50.50;;;;;;5025113;28;20239;-80
2022/07/25 09:24:49;;;;;;;6.22;4.93;;;35.00;50.90;;;;;;5041657;28;20216;-80
2022/07/25 09:27:17;;;;;;;7.50;4.72;;;35.10;50.40;;;;;;5044493;28;20226;-79
2022/07/25 09:29:44;;;;;;;7.03;5.05;;;35.10;50.70;;;;;;5042390;28;20224;-80
2022/07/25 09:32:18;;;;;;;5.75;4.20;;;35.10;50.00;;;;;;5045475;28;20234;-80
2022/07/25 09:34:47;;;;;;;5.65;4.72;;;35.10;49.70;;;;;;5035430;28;20244;-80
2022/07/25 09:37:16;;;;;;;6.63;5.05;;;35.00;50.30;;;;;;5039083;28;20462;-79
2022/07/25 09:39:44;;;;;;;4.75;4.38;;;34.90;50.20;;;;;;5034726;28;20264;-79
2022/07/25 09:42:19;;;;;;;4.88;4.47;;;34.70;49.50;;;;;;5035001;28;20751;-79
2022/07/25 09:45:01;;;;;;;6.15;5.55;;;34.70;50.60;;;;;;5029074;28;20594;-80
2022/07/25 09:47:30;;;;;;;5.35;4.85;;;34.80;50.60;;;;;;5023554;28;20227;-80
2022/07/25 09:49:57;;;;;;;5.40;4.60;;;35.00;50.90;;;;;;5032883;28;20220;-80
2022/07/25 09:52:24;;;;;;;5.47;5.03;;;35.20;50.90;;;;;;5040487;28;20246;-80
2022/07/25 09:54:50;;;;;;;7.82;5.30;;;35.60;50.10;;;;;;5009719;28;20226;-80
2022/07/25 09:57:17;;;;;;;5.13;4.65;;;35.80;49.50;;;;;;5034459;28;20746;-80
2022/07/25 09:59:44;;;;;;;5.13;4.72;;;36.00;48.80;;;;;;5033364;28;20252;-79
2022/07/25 10:02:21;;;;;;;5.28;4.78;;;36.00;48.10;;;;;;5020928;28;20279;-80
2022/07/25 10:05:02;;;;;;;6.40;4.88;;;36.00;49.50;;;;;;5017517;28;20216;-80
2022/07/25 10:07:29;;;;;;;4.75;4.35;;;36.20;48.30;;;;;;5029977;28;20238;-80
2022/07/25 10:09:56;;;;;;;5.70;5.20;;;36.20;48.40;;;;;;5017756;28;20235;-80
2022/07/25 10:12:26;;;;;;;6.15;4.55;;;36.30;48.70;;;;;;5034374;28;20242;-79
2022/07/25 10:15:08;;;;;;;9.57;5.32;;;36.30;48.60;;;;;;5029511;28;20733;-80
2022/07/25 10:17:40;;;;;;;5.10;4.60;;;36.30;47.30;;;;;;5041230;28;20407;-80
2022/07/25 10:20:10;;;;;;;5.18;4.75;;;36.30;47.10;;;;;;5031707;28;20320;-80
2022/07/25 10:22:38;;;;;;;5.03;4.53;;;36.30;48.00;;;;;;5022476;28;20403;-80
2022/07/25 10:25:12;;;;;;;7.80;5.30;;;36.30;48.10;;;;;;5032316;28;20296;-80
2022/07/25 10:27:47;;;;;;;7.60;4.82;;;36.30;47.90;;;;;;5037201;28;20216;-84
2022/07/25 10:30:25;;;;;;;5.95;5.35;;;36.30;47.50;;;;;;5039434;28;20223;-81
2022/07/25 10:32:57;;;;;;;5.78;4.68;;;36.30;47.40;;;;;;5033879;28;20228;-80
2022/07/25 10:35:26;;;;;;;5.97;4.78;;;36.40;47.10;;;;;;5029352;28;20228;-80
2022/07/25 10:37:54;;;;;;;6.47;4.93;;;36.40;47.20;;;;;;5047778;28;20314;-79
2022/07/25 10:40:26;;;;;;;5.53;4.63;;;36.40;47.00;;;;;;5053488;28;20595;-80
2022/07/25 10:42:57;;;;;;;8.80;5.00;;;36.30;47.00;;;;;;5030576;28;20240;-80
2022/07/25 10:45:26;;;;;;;7.57;4.93;;;36.20;47.20;;;;;;5015126;28;20254;-81
2022/07/25 10:47:54;;;;;;;6.85;4.40;;;36.20;47.50;;;;;;5034915;28;20704;-80
2022/07/25 10:50:22;;;;;;;6.60;4.38;;;36.20;46.90;;;;;;5040043;28;20224;-80
2022/07/25 10:53:00;;;;;;;8.85;5.00;;;36.20;47.20;;;;;;5032575;28;20274;-82
2022/07/25 10:55:30;;;;;;;5.10;4.60;;;36.10;46.70;;;;;;5031672;28;20327;-81
2022/07/25 10:58:02;;;;;;;6.43;4.72;;;36.10;47.00;;;;;;5049177;28;20286;-81
2022/07/25 11:00:29;;;;;;;7.68;4.97;;;36.10;46.60;;;;;;5049872;28;20294;-81
2022/07/25 11:02:56;;;;;;;9.15;5.32;;;36.00;46.60;;;;;;5019352;28;20228;-81
2022/07/25 11:05:23;;;;;;;5.03;4.50;;;35.90;46.90;;;;;;5029441;28;20685;-81
2022/07/25 11:07:52;;;;;;;9.13;4.88;;;35.70;46.80;;;;;;5029813;28;20248;-81
2022/07/25 11:10:26;;;;;;;6.80;4.60;;;35.60;47.10;;;;;;5011935;28;20696;-80
2022/07/25 11:12:53;;;;;;;8.77;5.22;;;35.40;47.00;;;;;;5009185;28;20302;-81
2022/07/25 11:15:23;;;;;;;5.68;4.68;;;35.40;47.70;;;;;;5012031;28;20221;-80
2022/07/25 11:17:51;;;;;;;5.20;4.70;;;35.20;47.60;;;;;;5012294;28;20235;-81
2022/07/25 11:20:19;;;;;;;8.70;5.20;;;35.10;47.70;;;;;;5011194;28;20248;-82
2022/07/25 11:22:52;;;;;;;6.60;5.15;;;35.00;47.90;;;;;;5014814;28;20231;-77
2022/07/25 11:25:21;;;;;;;7.32;5.07;;;34.90;47.80;;;;;;5016073;28;20731;-78
2022/07/25 11:27:57;;;;;;;8.38;5.43;;;34.80;47.90;;;;;;5039190;28;20220;-77
2022/07/25 11:30:26;;;;;;;6.90;4.45;;;34.70;48.10;;;;;;5037171;28;20223;-79
2022/07/25 11:32:55;;;;;;;5.55;4.95;;;34.60;48.40;;;;;;5029095;28;20515;-77
2022/07/25 11:35:24;;;;;;;12.65;5.15;;;34.50;48.50;;;;;;5033265;28;20220;-79
2022/07/25 11:37:52;;;;;;;5.97;5.38;;;34.30;48.70;;;;;;5013317;28;20310;-79
2022/07/25 11:40:19;;;;;;;5.88;5.30;;;34.30;49.00;;;;;;5035511;28;20821;-78
2022/07/25 11:42:48;;;;;;;9.80;4.88;;;34.20;48.70;;;;;;5035636;28;20223;-77
2022/07/25 11:45:23;;;;;;;7.50;5.07;;;34.10;49.10;;;;;;5028399;28;20229;-77
2022/07/25 11:48:03;;;;;;;11.75;5.40;;;34.00;49.50;;;;;;5046884;28;20757;-78
2022/07/25 11:50:30;;;;;;;10.68;6.03;;;34.10;49.80;;;;;;5034998;28;20665;-78
2022/07/25 11:53:00;;;;;;;9.07;5.20;;;34.10;50.30;;;;;;5030240;28;20224;-78
2022/07/25 11:55:29;;;;;;;5.47;4.72;;;34.20;49.80;;;;;;5035427;28;20328;-77
2022/07/25 11:57:59;;;;;;;8.65;4.50;;;34.30;49.50;;;;;;5041291;28;20227;-78
2022/07/25 12:00:28;;;;;;;5.13;4.20;;;34.30;49.40;;;;;;5035223;28;20627;-78
2022/07/25 12:03:05;;;;;;;7.93;4.50;;;34.50;49.10;;;;;;5044408;28;20224;-78
2022/07/25 12:05:33;;;;;;;7.55;4.38;;;34.50;48.90;;;;;;5033378;28;20226;-78
2022/07/25 12:08:08;;;;;;;9.23;5.30;;;34.80;49.10;;;;;;5031333;28;20287;-78
2022/07/25 12:10:36;;;;;;;5.15;4.65;;;35.10;48.60;;;;;;5017543;28;20321;-78
2022/07/25 12:13:05;;;;;;;5.32;4.70;;;35.40;48.80;;;;;;5025705;28;20304;-78
2022/07/25 12:15:36;;;;;;;5.88;5.28;;;35.80;48.30;;;;;;5028326;28;20221;-78
2022/07/25 12:18:03;;;;;;;6.00;4.63;;;36.10;47.40;;;;;;5026773;28;20611;-78
2022/07/25 12:20:31;;;;;;;8.70;4.78;;;36.30;46.60;;;;;;5038305;28;20220;-79
2022/07/25 12:23:00;;;;;;;6.43;4.45;;;36.60;46.10;;;;;;5036178;28;20277;-79
2022/07/25 12:25:28;;;;;;;4.85;4.28;;;36.80;45.50;;;;;;5024636;28;20224;-79
2022/07/25 12:27:57;;;;;;;8.48;4.75;;;37.00;45.50;;;;;;5024130;28;20240;-79
2022/07/25 12:30:24;;;;;;;10.27;4.63;;;37.10;44.80;;;;;;5029026;28;20252;-79
2022/07/25 12:32:52;;;;;;;4.75;4.28;;;37.20;44.30;;;;;;5038501;28;20216;-77
2022/07/25 12:35:19;;;;;;;8.45;4.32;;;37.20;44.10;;;;;;5011254;28;20240;-78
2022/07/25 12:37:46;;;;;;;6.18;4.40;;;37.30;43.80;;;;;;5037319;28;20246;-79
2022/07/25 12:40:14;;;;;;;6.88;4.57;;;37.30;44.20;;;;;;5034402;28;20223;-79
2022/07/25 12:42:41;;;;;;;4.53;4.13;;;37.30;43.30;;;;;;5025725;28;20233;-78
2022/07/25 12:45:09;;;;;;;5.32;4.25;;;37.20;43.50;;;;;;5037279;28;20231;-78
2022/07/25 12:47:36;;;;;;;8.82;4.60;;;37.00;43.60;;;;;;5017197;28;20681;-79
2022/07/25 12:50:07;;;;;;;5.30;4.80;;;36.80;43.40;;;;;;5039067;28;20221;-79
2022/07/25 12:52:34;;;;;;;5.80;4.80;;;36.60;43.40;;;;;;5028359;28;20228;-78
2022/07/25 12:55:01;;;;;;;7.47;4.45;;;36.40;43.60;;;;;;5034578;28;20315;-79
2022/07/25 12:57:27;;;;;;;9.98;4.70;;;36.20;43.80;;;;;;5022499;28;20227;-78
2022/07/25 12:59:54;;;;;;;6.95;4.88;;;36.00;44.30;;;;;;5015872;28;20522;-78